Time;durP1;ratioP1;P1;durP2;ratioP2;P2;SDS_P1;SDS_P2;PMS_P1;PMS_P2;Temp;Humidity;BMP_temperature;BMP_pressure;BME280_temperature;BME280_humidity;BME280_pressure;Samples;Min_cycle;Max_cycle;Signal;HPM_P1;HPM_P2
2023/12/11 00:01:50;;;;;;;2.80;0.85;;;16.50;88.90;;;;;;6280027;22;45028;-67
2023/12/11 00:04:27;;;;;;;3.67;0.95;;;16.50;89.00;;;;;;6279881;22;44897;-67
2023/12/11 00:06:55;;;;;;;4.68;0.85;;;16.50;89.10;;;;;;6279928;22;46491;-67
2023/12/11 00:09:37;;;;;;;3.40;0.73;;;16.50;88.80;;;;;;6279524;22;44979;-67
2023/12/11 00:12:04;;;;;;;5.25;1.58;;;16.50;88.90;;;;;;6280026;22;44940;-67
2023/12/11 00:14:47;;;;;;;4.28;1.27;;;16.50;89.80;;;;;;6279786;22;45206;-67
2023/12/11 00:17:40;;;;;;;4.18;0.82;;;16.60;89.10;;;;;;6279547;22;46535;-67
2023/12/11 00:20:08;;;;;;;3.83;1.33;;;16.60;89.30;;;;;;6280111;22;44869;-67
2023/12/11 00:22:37;;;;;;;5.90;1.23;;;16.60;89.40;;;;;;6279750;22;45118;-67
2023/12/11 00:25:13;;;;;;;4.20;1.17;;;16.60;89.30;;;;;;6279693;22;44784;-67
2023/12/11 00:28:04;;;;;;;4.95;0.90;;;16.60;89.30;;;;;;6279308;22;46301;-67
2023/12/11 00:30:59;;;;;;;5.95;1.20;;;16.60;89.70;;;;;;6278696;22;44960;-67
2023/12/11 00:33:26;;;;;;;4.22;1.17;;;16.60;89.40;;;;;;6276322;22;44517;-67
2023/12/11 00:36:27;;;;;;;7.78;1.40;;;16.60;88.90;;;;;;6272257;22;45074;-67
2023/12/11 00:38:56;;;;;;;4.32;1.15;;;16.60;89.30;;;;;;6261898;22;46539;-68
2023/12/11 00:41:23;;;;;;;3.88;1.05;;;16.60;89.10;;;;;;6239659;22;45173;-67
2023/12/11 00:43:50;;;;;;;3.33;1.35;;;16.60;89.20;;;;;;6212771;22;45107;-68
2023/12/11 00:46:34;;;;;;;6.03;1.30;;;16.60;88.90;;;;;;6179306;22;45134;-68
2023/12/11 00:49:02;;;;;;;5.43;1.13;;;16.60;89.20;;;;;;6151868;22;46311;-68
2023/12/11 00:51:32;;;;;;;6.93;1.55;;;16.60;88.90;;;;;;6128980;22;45117;-68
2023/12/11 00:54:22;;;;;;;6.60;1.20;;;16.60;89.10;;;;;;6107600;22;45019;-67
2023/12/11 00:57:01;;;;;;;3.53;1.05;;;16.60;89.10;;;;;;6104078;22;45217;-67
2023/12/11 00:59:27;;;;;;;3.92;1.13;;;16.60;89.10;;;;;;6065863;22;47265;-68
2023/12/11 01:01:55;;;;;;;5.18;1.48;;;16.60;89.60;;;;;;6074845;22;45173;-68
2023/12/11 01:05:00;;;;;;;5.75;1.60;;;16.60;89.60;;;;;;6042172;22;44862;-67
2023/12/11 01:07:32;;;;;;;4.78;1.20;;;16.60;89.60;;;;;;6034848;22;45240;-67
2023/12/11 01:10:19;;;;;;;6.65;1.42;;;16.60;89.40;;;;;;6043414;22;45746;-67
2023/12/11 01:12:46;;;;;;;7.00;1.52;;;16.60;90.20;;;;;;6033046;22;45136;-68
2023/12/11 01:15:23;;;;;;;5.88;1.35;;;16.60;89.60;;;;;;6012432;22;45311;-67
2023/12/11 01:18:07;;;;;;;7.25;1.55;;;16.60;89.60;;;;;;6023791;22;44972;-67
2023/12/11 01:20:35;;;;;;;4.50;1.08;;;16.60;89.60;;;;;;6033002;22;47156;-67
2023/12/11 01:23:17;;;;;;;4.85;1.33;;;16.60;89.20;;;;;;6014207;22;45311;-67
2023/12/11 01:25:46;;;;;;;5.38;1.27;;;16.60;89.60;;;;;;6025506;22;45120;-66
2023/12/11 01:28:22;;;;;;;3.72;1.20;;;16.60;89.30;;;;;;6035179;22;45337;-67
2023/12/11 01:31:01;;;;;;;4.43;1.20;;;16.60;89.10;;;;;;5993126;22;46277;-67
2023/12/11 01:33:28;;;;;;;5.32;1.25;;;16.60;88.90;;;;;;6042467;22;45130;-67
2023/12/11 01:35:55;;;;;;;5.03;1.50;;;16.60;88.70;;;;;;6007722;22;45274;-67
2023/12/11 01:38:39;;;;;;;5.55;1.60;;;16.60;88.70;;;;;;6032264;22;45273;-66
2023/12/11 01:44:03;;;;;;;7.40;1.40;;;16.60;89.10;;;;;;6050465;22;45266;-67
2023/12/11 01:49:44;;;;;;;7.03;1.50;;;16.60;89.40;;;;;;6077825;22;45147;-66
2023/12/11 01:52:27;;;;;;;5.85;1.33;;;16.60;89.20;;;;;;6119834;22;46289;-67
2023/12/11 01:55:24;;;;;;;5.88;1.48;;;16.60;89.50;;;;;;6151263;22;45130;-67
2023/12/11 01:58:16;;;;;;;4.35;1.30;;;16.60;89.40;;;;;;6219527;22;45106;-66
2023/12/11 02:01:16;;;;;;;6.70;1.38;;;16.60;89.40;;;;;;6262464;22;44682;-65
2023/12/11 02:03:55;;;;;;;3.70;1.10;;;16.60;89.40;;;;;;6269043;22;47416;-65
2023/12/11 02:06:48;;;;;;;3.88;1.45;;;16.60;89.30;;;;;;6270144;22;45086;-65
2023/12/11 02:09:15;;;;;;;7.25;1.23;;;16.60;89.20;;;;;;6271119;22;45043;-65
2023/12/11 02:12:27;;;;;;;3.70;1.45;;;16.60;89.00;;;;;;6271270;22;45096;-65
2023/12/11 02:15:41;;;;;;;8.70;1.25;;;16.60;89.20;;;;;;6271256;22;45114;-66
2023/12/11 02:18:24;;;;;;;4.80;1.42;;;16.60;89.10;;;;;;6274310;22;45153;-66
2023/12/11 02:21:00;;;;;;;7.38;1.55;;;16.60;89.10;;;;;;6272822;22;45083;-67
2023/12/11 02:23:59;;;;;;;7.80;1.55;;;16.60;88.70;;;;;;6272236;22;45207;-67
2023/12/11 02:26:41;;;;;;;5.30;1.25;;;16.60;88.80;;;;;;6271675;22;46318;-67
2023/12/11 02:29:20;;;;;;;4.70;1.20;;;16.60;88.30;;;;;;6272005;22;45059;-66
2023/12/11 02:31:49;;;;;;;5.50;1.23;;;16.60;88.90;;;;;;6270786;22;45148;-67
2023/12/11 02:34:52;;;;;;;3.20;1.10;;;16.60;89.10;;;;;;6268375;22;44746;-66
2023/12/11 02:37:37;;;;;;;5.05;1.38;;;16.60;88.90;;;;;;6271308;22;45437;-66
2023/12/11 02:40:28;;;;;;;6.88;1.40;;;16.60;89.20;;;;;;6271414;22;45045;-66
2023/12/11 02:43:06;;;;;;;5.28;1.13;;;16.60;89.20;;;;;;6269178;22;45154;-66
2023/12/11 02:45:36;;;;;;;3.80;1.02;;;16.60;89.40;;;;;;6271889;22;45071;-67
2023/12/11 02:48:06;;;;;;;3.80;1.15;;;16.60;89.40;;;;;;6274290;22;46038;-66
2023/12/11 02:50:35;;;;;;;6.70;1.50;;;16.60;89.40;;;;;;6270339;22;45089;-66
2023/12/11 02:53:23;;;;;;;6.07;1.38;;;16.70;89.70;;;;;;6270034;22;45123;-66
2023/12/11 02:56:32;;;;;;;5.78;2.05;;;16.60;89.10;;;;;;6270806;22;45363;-66
2023/12/11 02:59:44;;;;;;;7.00;1.63;;;16.60;88.80;;;;;;6269536;22;45245;-66
2023/12/11 03:02:48;;;;;;;5.57;1.27;;;16.60;88.40;;;;;;6270964;22;45126;-65
2023/12/11 03:05:37;;;;;;;6.90;1.70;;;16.60;88.70;;;;;;6270328;22;45099;-66
2023/12/11 03:08:17;;;;;;;5.03;1.23;;;16.60;88.80;;;;;;6274197;22;45236;-66
2023/12/11 03:10:44;;;;;;;6.13;1.45;;;16.60;88.50;;;;;;6275566;22;46014;-66
2023/12/11 03:13:23;;;;;;;4.65;1.48;;;16.60;88.10;;;;;;6278500;22;45044;-66
2023/12/11 03:15:51;;;;;;;6.53;1.40;;;16.60;88.60;;;;;;6279522;22;45131;-66
2023/12/11 03:18:37;;;;;;;3.92;1.00;;;16.60;88.40;;;;;;6279822;22;45096;-66
2023/12/11 03:21:43;;;;;;;7.07;2.15;;;16.60;88.40;;;;;;6275510;22;47139;-66
2023/12/11 03:24:31;;;;;;;4.72;1.05;;;16.60;88.80;;;;;;6279846;22;44928;-66
2023/12/11 03:26:58;;;;;;;6.00;1.23;;;16.60;88.50;;;;;;6280431;22;45076;-66
2023/12/11 03:29:49;;;;;;;3.78;1.00;;;16.60;88.60;;;;;;6280059;22;45181;-66
2023/12/11 03:32:26;;;;;;;7.38;1.30;;;16.60;88.70;;;;;;6279657;22;46051;-66
2023/12/11 03:35:07;;;;;;;5.40;1.88;;;16.70;88.90;;;;;;6279696;22;45209;-66
2023/12/11 03:37:58;;;;;;;4.43;1.33;;;16.70;88.90;;;;;;6280288;22;45035;-66
2023/12/11 03:40:25;;;;;;;4.63;1.20;;;16.70;89.10;;;;;;6280463;22;44960;-66
2023/12/11 03:49:58;;;;;;;7.32;1.52;;;16.60;87.90;;;;;;6277258;22;44393;-66
2023/12/11 03:52:33;;;;;;;8.88;1.45;;;16.60;88.10;;;;;;6279987;22;44708;-66
2023/12/11 03:55:01;;;;;;;7.20;1.58;;;16.60;87.40;;;;;;6279565;22;46235;-66
2023/12/11 03:57:45;;;;;;;5.15;1.27;;;16.60;87.90;;;;;;6279571;22;45016;-66
2023/12/11 04:00:47;;;;;;;4.28;1.00;;;16.60;87.50;;;;;;6277968;22;45206;-65
2023/12/11 04:03:42;;;;;;;3.65;1.00;;;16.60;87.70;;;;;;6279057;22;44685;-65
2023/12/11 04:06:45;;;;;;;4.70;1.10;;;16.60;88.20;;;;;;6277758;22;46024;-65
2023/12/11 04:09:16;;;;;;;4.93;0.90;;;16.60;89.10;;;;;;6277494;22;45059;-65
2023/12/11 04:12:00;;;;;;;4.10;1.05;;;16.60;89.80;;;;;;6276896;22;45059;-65
2023/12/11 04:14:47;;;;;;;5.13;1.00;;;16.60;90.00;;;;;;6276019;22;45027;-66
2023/12/11 04:17:42;;;;;;;4.82;1.30;;;16.60;90.00;;;;;;6269149;22;47238;-65
2023/12/11 04:20:32;;;;;;;5.60;1.23;;;16.60;90.10;;;;;;6267631;22;45329;-65
2023/12/11 04:23:00;;;;;;;2.17;0.90;;;16.70;90.20;;;;;;6264619;22;45135;-65
2023/12/11 04:25:27;;;;;;;4.03;1.15;;;16.60;90.10;;;;;;6272074;22;44847;-65
2023/12/11 04:28:06;;;;;;;4.18;0.90;;;16.70;90.30;;;;;;6277759;22;46426;-65
2023/12/11 04:30:39;;;;;;;4.53;1.17;;;16.70;90.10;;;;;;6277548;22;44569;-65
2023/12/11 04:33:37;;;;;;;4.30;1.30;;;16.70;89.10;;;;;;6277244;22;45308;-65
2023/12/11 04:36:08;;;;;;;3.67;1.10;;;16.70;88.00;;;;;;6277426;22;44725;-65
2023/12/11 04:38:51;;;;;;;4.40;1.20;;;16.70;88.50;;;;;;6274297;22;47434;-65
2023/12/11 04:41:39;;;;;;;4.43;1.13;;;16.70;88.00;;;;;;6275464;22;44585;-65
2023/12/11 04:44:06;;;;;;;3.45;0.98;;;16.70;88.30;;;;;;6276262;22;45043;-65
2023/12/11 04:49:42;;;;;;;6.13;1.20;;;16.70;88.40;;;;;;6277798;22;45208;-65
2023/12/11 04:52:08;;;;;;;6.40;0.93;;;16.70;89.00;;;;;;6276328;22;45045;-65
2023/12/11 04:54:58;;;;;;;3.40;0.77;;;16.80;89.20;;;;;;6277549;22;44999;-65
2023/12/11 04:57:56;;;;;;;4.78;1.50;;;16.80;89.40;;;;;;6247352;22;45043;-64
2023/12/11 05:00:36;;;;;;;6.30;1.20;;;16.80;89.50;;;;;;6260627;22;46490;-64
2023/12/11 05:03:03;;;;;;;3.28;1.00;;;16.80;89.70;;;;;;6253394;22;45006;-64
2023/12/11 05:05:40;;;;;;;5.45;1.25;;;16.80;89.90;;;;;;6110546;22;45430;-66
2023/12/11 05:08:08;;;;;;;5.25;1.27;;;16.80;90.10;;;;;;6060648;22;45266;-65
2023/12/11 05:10:35;;;;;;;3.65;1.00;;;16.80;90.00;;;;;;6041244;22;46279;-66
2023/12/11 05:13:38;;;;;;;5.20;1.25;;;16.80;90.30;;;;;;6067713;22;45151;-66
2023/12/11 05:16:37;;;;;;;6.20;1.20;;;16.80;90.50;;;;;;6065557;22;44830;-64
2023/12/11 05:19:04;;;;;;;4.88;1.42;;;16.70;90.40;;;;;;5989018;22;45122;-64
2023/12/11 05:21:43;;;;;;;4.88;1.40;;;16.70;90.20;;;;;;6007787;22;45788;-64
2023/12/11 05:24:09;;;;;;;3.63;1.20;;;16.70;90.00;;;;;;6049267;22;44766;-64
2023/12/11 05:26:53;;;;;;;5.10;1.23;;;16.70;90.00;;;;;;6082273;22;45131;-64
2023/12/11 05:29:22;;;;;;;4.82;1.20;;;16.70;90.00;;;;;;6067195;22;45035;-63
2023/12/11 05:31:50;;;;;;;6.53;1.40;;;16.70;89.80;;;;;;6022015;22;46411;-63
2023/12/11 05:34:17;;;;;;;5.50;1.38;;;16.70;89.80;;;;;;6002233;22;45318;-64
2023/12/11 05:36:44;;;;;;;4.55;1.35;;;16.70;89.40;;;;;;6046140;22;45328;-64
2023/12/11 05:39:10;;;;;;;4.10;0.85;;;16.70;89.20;;;;;;6035647;22;44880;-64
2023/12/11 05:41:50;;;;;;;4.93;1.27;;;16.70;88.90;;;;;;6063339;22;46356;-64
2023/12/11 05:44:18;;;;;;;2.72;1.02;;;16.70;88.60;;;;;;6036869;22;44831;-63
2023/12/11 05:47:14;;;;;;;1.90;0.70;;;16.70;88.10;;;;;;6030820;22;45294;-64
2023/12/11 05:49:40;;;;;;;4.57;1.20;;;16.80;88.00;;;;;;6000779;22;45555;-62
2023/12/11 05:52:22;;;;;;;3.03;0.90;;;16.80;87.70;;;;;;6012175;22;46290;-63
2023/12/11 05:55:17;;;;;;;3.55;1.05;;;16.80;87.60;;;;;;5993637;22;45052;-63
2023/12/11 05:57:59;;;;;;;4.63;1.10;;;16.80;87.80;;;;;;5995395;22;45234;-63
2023/12/11 06:00:46;;;;;;;4.72;1.35;;;16.90;89.00;;;;;;6012775;22;45399;-62
2023/12/11 06:03:36;;;;;;;3.88;1.20;;;17.00;90.50;;;;;;6017625;22;46541;-63
2023/12/11 06:06:04;;;;;;;4.88;1.27;;;17.10;90.20;;;;;;6020862;22;45131;-63
2023/12/11 06:08:32;;;;;;;6.40;1.20;;;17.00;87.50;;;;;;6029426;22;45416;-63
2023/12/11 06:11:07;;;;;;;4.90;1.20;;;17.00;87.50;;;;;;5974524;22;45265;-62
2023/12/11 06:13:35;;;;;;;4.72;1.50;;;17.00;87.30;;;;;;6041745;22;45309;-62
2023/12/11 06:16:15;;;;;;;3.63;0.80;;;17.00;87.10;;;;;;5981115;22;45226;-62
2023/12/11 06:21:40;;;;;;;6.38;1.13;;;16.90;87.00;;;;;;5943929;22;45248;-62
2023/12/11 06:27:17;;;;;;;3.45;0.93;;;16.90;86.90;;;;;;5945138;22;45280;-62
2023/12/11 06:30:07;;;;;;;4.15;1.20;;;16.90;87.20;;;;;;6005194;22;45247;-62
2023/12/11 06:32:35;;;;;;;2.60;0.80;;;16.90;87.00;;;;;;5964539;22;45119;-62
2023/12/11 06:35:16;;;;;;;4.47;1.13;;;16.90;86.80;;;;;;5998626;22;47467;-63
2023/12/11 06:38:00;;;;;;;5.65;1.58;;;16.90;86.60;;;;;;5995095;22;45254;-62
2023/12/11 06:43:09;;;;;;;5.28;1.13;;;16.90;86.40;;;;;;5947298;22;45294;-63
2023/12/11 06:45:36;;;;;;;4.28;0.95;;;16.90;86.30;;;;;;5942245;22;46337;-63
2023/12/11 06:48:12;;;;;;;2.88;1.10;;;16.90;86.30;;;;;;5984320;22;45351;-62
2023/12/11 06:50:41;;;;;;;4.00;1.00;;;16.90;86.30;;;;;;5991711;22;45086;-63
2023/12/11 06:53:46;;;;;;;2.88;0.90;;;16.90;85.90;;;;;;5972715;22;45272;-63
2023/12/11 06:56:38;;;;;;;5.88;1.67;;;16.90;85.90;;;;;;5955431;22;47294;-62
2023/12/11 06:59:36;;;;;;;3.17;0.90;;;16.90;86.00;;;;;;5974652;22;45435;-63
2023/12/11 07:02:03;;;;;;;2.92;0.85;;;16.90;86.00;;;;;;5948674;22;44981;-63
2023/12/11 07:04:30;;;;;;;4.78;1.20;;;16.90;85.70;;;;;;5961791;22;45291;-63
2023/12/11 07:07:26;;;;;;;2.70;0.88;;;16.90;85.90;;;;;;5998543;22;47081;-62
2023/12/11 07:10:11;;;;;;;4.07;1.13;;;16.90;85.70;;;;;;5960359;22;45226;-63
2023/12/11 07:12:40;;;;;;;4.97;1.40;;;16.90;85.90;;;;;;5986760;22;45067;-62
2023/12/11 07:15:13;;;;;;;5.15;0.95;;;16.90;85.80;;;;;;5953889;22;45079;-62
2023/12/11 07:20:21;;;;;;;7.05;1.23;;;16.90;85.60;;;;;;5978528;22;45126;-62
2023/12/11 07:23:35;;;;;;;3.92;0.95;;;16.90;85.60;;;;;;5987481;22;45294;-62
2023/12/11 07:26:27;;;;;;;4.55;0.95;;;16.90;85.80;;;;;;5991383;22;45289;-62
2023/12/11 07:29:10;;;;;;;4.28;0.98;;;16.90;85.60;;;;;;5993482;22;44939;-62
2023/12/11 07:31:37;;;;;;;6.20;1.30;;;16.90;85.40;;;;;;5984880;22;45279;-62
2023/12/11 07:34:45;;;;;;;3.80;1.20;;;16.90;85.40;;;;;;6008007;22;45497;-62
2023/12/11 07:37:12;;;;;;;5.40;1.00;;;16.90;85.70;;;;;;5972405;22;45202;-62
2023/12/11 07:39:39;;;;;;;4.35;0.95;;;16.90;85.20;;;;;;6014688;22;46651;-62
2023/12/11 07:42:28;;;;;;;3.95;1.10;;;16.90;85.20;;;;;;6013265;22;45255;-62
2023/12/11 07:45:25;;;;;;;2.40;0.98;;;16.90;85.10;;;;;;6005613;22;45322;-62
2023/12/11 07:48:10;;;;;;;4.10;1.17;;;16.90;85.10;;;;;;5969681;22;45206;-63
2023/12/11 07:50:56;;;;;;;5.63;1.10;;;16.90;85.00;;;;;;6012791;22;46443;-62
2023/12/11 07:53:29;;;;;;;3.45;1.20;;;16.80;85.00;;;;;;5971216;22;45293;-62
2023/12/11 07:56:10;;;;;;;4.18;1.23;;;16.80;85.20;;;;;;5985366;22;45455;-62
2023/12/11 07:58:43;;;;;;;3.20;1.23;;;16.80;85.60;;;;;;5960292;22;45225;-62
2023/12/11 08:01:10;;;;;;;4.15;1.13;;;16.80;85.90;;;;;;5994226;22;46582;-62
2023/12/11 08:04:06;;;;;;;3.53;1.08;;;16.80;86.10;;;;;;6037218;22;45207;-62
2023/12/11 08:07:04;;;;;;;5.57;1.17;;;16.80;86.10;;;;;;6016805;22;44956;-62
2023/12/11 08:09:52;;;;;;;6.78;1.50;;;16.80;86.70;;;;;;6060409;22;45047;-62
2023/12/11 08:12:19;;;;;;;72.80;6.85;;;16.80;86.30;;;;;;6042729;22;46139;-60
2023/12/11 08:15:10;;;;;;;12.82;2.10;;;16.80;88.60;;;;;;6068092;22;45166;-59
2023/12/11 08:17:37;;;;;;;5.22;0.95;;;16.90;85.50;;;;;;6005255;22;45444;-60
2023/12/11 08:20:27;;;;;;;10.32;1.35;;;17.00;84.20;;;;;;6034816;22;45069;-60
2023/12/11 08:23:07;;;;;;;7.40;1.48;;;17.00;83.70;;;;;;6038702;22;46408;-60
2023/12/11 08:26:03;;;;;;;4.20;1.50;;;17.00;83.30;;;;;;6063013;22;45103;-60
2023/12/11 08:28:29;;;;;;;6.75;1.20;;;17.00;83.00;;;;;;6046042;22;45088;-60
2023/12/11 08:30:57;;;;;;;3.17;0.85;;;17.00;83.90;;;;;;5982064;22;45067;-60
2023/12/11 08:33:26;;;;;;;4.88;0.85;;;17.00;82.50;;;;;;5974342;22;47276;-60
2023/12/11 08:36:27;;;;;;;11.65;1.15;;;17.00;82.20;;;;;;6018332;22;45379;-60
2023/12/11 08:39:10;;;;;;;3.72;0.90;;;17.00;81.90;;;;;;6018369;22;45099;-60
2023/12/11 08:42:00;;;;;;;5.03;1.15;;;17.00;81.90;;;;;;6000275;22;45246;-60
2023/12/11 08:44:51;;;;;;;7.80;0.85;;;17.00;81.50;;;;;;5977896;22;46573;-60
2023/12/11 08:47:27;;;;;;;4.07;1.05;;;17.00;81.30;;;;;;5979683;22;45225;-60
2023/12/11 08:50:22;;;;;;;4.45;1.20;;;17.00;81.40;;;;;;5981172;22;45238;-60
2023/12/11 08:52:51;;;;;;;4.40;1.08;;;17.00;81.30;;;;;;5976729;22;45359;-60
2023/12/11 08:55:18;;;;;;;4.47;0.93;;;17.00;81.00;;;;;;6023560;22;47594;-60
2023/12/11 08:58:11;;;;;;;4.43;1.10;;;17.00;80.80;;;;;;5991827;22;45383;-60
2023/12/11 09:00:38;;;;;;;3.67;0.90;;;17.10;80.70;;;;;;5996122;22;45151;-60
2023/12/11 09:03:36;;;;;;;4.53;1.05;;;17.10;80.40;;;;;;5979562;22;45480;-60
2023/12/11 09:06:29;;;;;;;3.60;1.05;;;17.10;80.10;;;;;;5976143;22;46177;-60
2023/12/11 09:09:17;;;;;;;6.72;0.93;;;17.10;79.60;;;;;;5986898;22;45461;-60
2023/12/11 09:12:07;;;;;;;5.10;1.05;;;17.10;79.60;;;;;;5998875;22;45258;-60
2023/12/11 09:14:49;;;;;;;3.65;1.15;;;17.10;79.50;;;;;;5987660;22;44984;-60
2023/12/11 09:17:46;;;;;;;3.15;0.80;;;17.10;79.80;;;;;;6035946;22;46499;-59
2023/12/11 09:20:49;;;;;;;5.95;1.30;;;17.10;79.80;;;;;;6000577;22;44987;-60
2023/12/11 09:23:16;;;;;;;7.20;1.60;;;17.10;79.80;;;;;;5988423;22;45384;-61
2023/12/11 09:26:23;;;;;;;6.38;1.25;;;17.10;79.50;;;;;;6063608;22;45037;-61
2023/12/11 09:28:52;;;;;;;3.05;0.90;;;17.10;79.50;;;;;;6040920;22;46194;-60
2023/12/11 09:31:19;;;;;;;5.18;1.08;;;17.10;79.40;;;;;;6011289;22;44958;-60
2023/12/11 09:33:47;;;;;;;4.28;1.10;;;17.10;79.40;;;;;;6006132;22;45338;-61
2023/12/11 09:36:39;;;;;;;6.20;1.13;;;17.10;79.30;;;;;;5990046;22;44776;-60
2023/12/11 09:39:43;;;;;;;5.18;1.40;;;17.10;79.30;;;;;;6007714;22;47160;-61
2023/12/11 09:42:32;;;;;;;4.72;1.08;;;17.10;79.30;;;;;;5996077;22;45195;-60
2023/12/11 09:45:00;;;;;;;7.00;1.10;;;17.10;79.30;;;;;;5995133;22;45361;-61
2023/12/11 09:47:32;;;;;;;5.43;1.55;;;17.10;79.30;;;;;;5971549;22;45266;-61
2023/12/11 09:50:00;;;;;;;3.55;1.10;;;17.10;79.30;;;;;;5996075;22;45354;-61
2023/12/11 09:52:29;;;;;;;5.78;1.10;;;17.10;79.20;;;;;;5993681;22;45489;-61
2023/12/11 09:55:09;;;;;;;4.97;0.95;;;17.10;79.10;;;;;;5969101;22;45279;-61
2023/12/11 09:58:07;;;;;;;4.53;1.10;;;17.10;79.10;;;;;;5992636;22;45473;-61
2023/12/11 10:00:47;;;;;;;4.95;1.40;;;17.10;79.40;;;;;;5992043;22;46162;-61
2023/12/11 10:03:55;;;;;;;6.32;1.55;;;17.10;79.10;;;;;;5989673;22;45305;-61
2023/12/11 10:06:24;;;;;;;5.38;1.55;;;17.10;78.80;;;;;;6004195;22;45158;-61
2023/12/11 10:12:47;;;;;;;4.38;1.05;;;17.20;78.50;;;;;;5940057;22;45576;-61
2023/12/11 10:15:48;;;;;;;3.88;1.08;;;17.10;78.40;;;;;;5982569;22;45514;-61
2023/12/11 10:18:15;;;;;;;2.47;1.00;;;17.20;78.30;;;;;;5983940;22;45292;-61
2023/12/11 10:21:05;;;;;;;3.85;1.23;;;17.20;78.40;;;;;;5971555;22;45301;-61
2023/12/11 10:24:05;;;;;;;4.05;1.00;;;17.20;78.20;;;;;;5997238;22;46727;-60
2023/12/11 10:30:44;;;;;;;5.15;0.90;;;17.10;77.90;;;;;;5916861;22;45223;-59
2023/12/11 10:33:12;;;;;;;7.72;0.90;;;17.10;78.10;;;;;;5979056;22;45467;-60
2023/12/11 10:36:13;;;;;;;5.65;1.10;;;17.10;78.40;;;;;;5976070;22;46858;-59
2023/12/11 10:38:47;;;;;;;5.10;1.48;;;17.10;78.40;;;;;;5993955;22;45447;-59
2023/12/11 10:42:33;;;;;;;2.97;1.02;;;17.10;78.70;;;;;;5970187;22;45209;-59
2023/12/11 10:45:18;;;;;;;3.70;1.27;;;17.10;78.90;;;;;;5982680;22;45475;-59
2023/12/11 10:48:22;;;;;;;5.57;1.10;;;17.00;79.20;;;;;;5958374;22;47445;-59
2023/12/11 10:50:49;;;;;;;3.28;1.00;;;17.00;79.40;;;;;;5966096;22;45034;-60
2023/12/11 10:53:54;;;;;;;4.68;1.35;;;16.90;79.80;;;;;;5989297;22;45025;-59
2023/12/11 10:56:26;;;;;;;5.20;1.10;;;16.90;80.40;;;;;;5953190;22;45288;-60
2023/12/11 11:02:01;;;;;;;6.40;1.15;;;16.80;81.00;;;;;;5943136;22;45098;-59
2023/12/11 11:08:03;;;;;;;5.13;1.23;;;16.80;81.00;;;;;;5924481;22;45324;-59
2023/12/11 11:10:46;;;;;;;5.85;1.50;;;16.90;82.20;;;;;;5988262;22;46539;-59
2023/12/11 11:19:32;;;;;;;3.45;1.00;;;16.90;81.10;;;;;;5929579;22;45337;-59
2023/12/11 11:25:36;;;;;;;5.18;1.08;;;16.90;81.10;;;;;;5912855;22;45332;-59
2023/12/11 11:28:35;;;;;;;5.68;1.15;;;16.80;81.50;;;;;;5965791;22;45278;-59
2023/12/11 11:31:17;;;;;;;5.03;1.00;;;16.80;81.60;;;;;;5981502;22;45158;-59
2023/12/11 11:37:05;;;;;;;4.40;0.98;;;16.80;81.50;;;;;;5911884;22;44944;-59
2023/12/11 11:40:01;;;;;;;5.65;1.20;;;16.80;81.60;;;;;;5983748;22;45334;-59
2023/12/11 11:43:00;;;;;;;4.95;1.20;;;16.80;81.60;;;;;;6013451;22;45409;-59
2023/12/11 11:45:27;;;;;;;4.22;0.95;;;16.80;81.70;;;;;;5961907;22;46338;-59
2023/12/11 11:47:55;;;;;;;4.63;0.98;;;16.80;81.40;;;;;;5974765;22;45415;-59
2023/12/11 11:50:24;;;;;;;4.47;1.15;;;16.80;81.40;;;;;;5969892;22;45323;-59
2023/12/11 11:53:24;;;;;;;5.63;1.30;;;16.80;81.50;;;;;;5958371;22;45340;-59
2023/12/11 11:56:18;;;;;;;2.70;0.88;;;16.80;81.50;;;;;;5967042;22;46585;-59
2023/12/11 11:59:05;;;;;;;5.28;1.23;;;16.80;81.50;;;;;;5999952;22;44777;-59
2023/12/11 12:05:23;;;;;;;2.95;0.90;;;16.80;81.30;;;;;;5913680;22;45243;-59
2023/12/11 12:07:51;;;;;;;3.60;1.02;;;16.90;81.40;;;;;;5951529;22;46481;-59
2023/12/11 12:10:37;;;;;;;2.78;1.00;;;16.90;81.30;;;;;;5987031;22;45472;-59
2023/12/11 12:13:22;;;;;;;4.03;0.80;;;16.90;81.30;;;;;;5989516;22;45248;-59
2023/12/11 12:16:00;;;;;;;2.05;0.70;;;16.90;81.00;;;;;;5968490;22;45452;-59
2023/12/11 12:18:54;;;;;;;3.63;1.05;;;16.90;81.20;;;;;;5969838;22;46420;-58
2023/12/11 12:27:31;;;;;;;3.35;0.73;;;16.90;81.00;;;;;;5949141;22;45319;-59
2023/12/11 12:30:11;;;;;;;4.97;1.30;;;16.80;81.00;;;;;;5956169;22;47259;-58
2023/12/11 12:32:40;;;;;;;3.25;0.80;;;16.80;80.80;;;;;;5955771;22;45260;-58
2023/12/11 12:35:12;;;;;;;7.00;1.13;;;16.80;80.80;;;;;;5980438;22;45197;-58
2023/12/11 12:38:04;;;;;;;3.85;0.85;;;16.80;80.80;;;;;;5989805;22;45458;-58
2023/12/11 12:41:12;;;;;;;3.90;1.33;;;16.90;80.80;;;;;;5968408;22;47065;-58
2023/12/11 12:46:19;;;;;;;4.10;0.80;;;16.90;80.80;;;;;;5956323;22;45083;-58
2023/12/11 12:49:09;;;;;;;2.45;0.88;;;16.90;80.70;;;;;;5972105;22;45118;-58
2023/12/11 12:51:58;;;;;;;3.92;1.25;;;16.90;80.80;;;;;;5947089;22;45790;-58
2023/12/11 12:58:25;;;;;;;4.63;1.15;;;16.90;80.70;;;;;;5942160;22;45463;-58
2023/12/11 13:01:10;;;;;;;3.97;1.00;;;16.90;80.70;;;;;;5997594;22;44971;-58
2023/12/11 13:04:13;;;;;;;3.38;0.90;;;16.90;80.60;;;;;;6008943;22;47185;-58
2023/12/11 13:06:42;;;;;;;2.50;0.80;;;16.90;80.50;;;;;;5962273;22;45139;-58
2023/12/11 13:09:14;;;;;;;2.47;1.02;;;16.90;80.70;;;;;;5964395;22;45116;-59
2023/12/11 13:12:12;;;;;;;2.65;0.90;;;16.90;80.60;;;;;;5966998;22;45342;-58
2023/12/11 13:14:38;;;;;;;3.03;0.90;;;16.90;80.60;;;;;;5968558;22;46335;-58
2023/12/11 13:17:19;;;;;;;3.53;0.75;;;16.90;80.30;;;;;;5976347;22;45212;-59
2023/12/11 13:23:43;;;;;;;3.92;0.70;;;16.90;80.40;;;;;;5973338;22;45311;-58
2023/12/11 13:26:37;;;;;;;3.55;0.63;;;16.90;80.50;;;;;;5969140;22;46545;-58
2023/12/11 13:29:06;;;;;;;3.22;0.70;;;16.80;80.50;;;;;;5993066;22;45074;-58
2023/12/11 13:32:16;;;;;;;2.38;0.63;;;16.90;80.50;;;;;;6016062;22;45114;-59
2023/12/11 13:37:49;;;;;;;2.65;0.95;;;16.90;79.20;;;;;;5994366;22;45523;-59
2023/12/11 13:40:20;;;;;;;3.47;0.50;;;16.90;80.00;;;;;;5981955;22;45247;-59
2023/12/11 13:45:28;;;;;;;1.63;0.40;;;16.90;79.90;;;;;;6007426;22;45106;-59
2023/12/11 13:48:21;;;;;;;2.88;0.73;;;16.90;80.00;;;;;;6080005;22;46096;-59
2023/12/11 13:50:50;;;;;;;1.17;0.60;;;16.90;79.90;;;;;;5991059;22;45468;-59
2023/12/11 13:53:39;;;;;;;1.15;0.57;;;17.00;80.10;;;;;;5971069;22;45283;-58
2023/12/11 13:56:33;;;;;;;4.38;0.82;;;17.00;80.10;;;;;;5986075;22;45075;-59
2023/12/11 13:59:00;;;;;;;1.83;0.50;;;16.90;79.90;;;;;;5979454;22;45411;-59
2023/12/11 14:02:03;;;;;;;2.20;0.60;;;16.90;80.00;;;;;;5965059;22;45073;-58
2023/12/11 14:04:41;;;;;;;2.40;0.50;;;16.90;79.90;;;;;;5980047;22;45054;-59
2023/12/11 14:07:15;;;;;;;1.40;0.43;;;16.90;79.80;;;;;;5968033;22;45448;-58
2023/12/11 14:12:33;;;;;;;1.42;0.65;;;16.90;80.10;;;;;;5953157;22;45171;-59
2023/12/11 14:15:01;;;;;;;1.35;0.60;;;16.90;80.20;;;;;;5951766;22;45411;-59
2023/12/11 14:17:50;;;;;;;2.17;0.98;;;16.90;80.10;;;;;;5972735;22;44940;-59
2023/12/11 14:20:39;;;;;;;1.45;0.60;;;16.90;80.40;;;;;;5957856;22;47561;-59
2023/12/11 14:23:27;;;;;;;0.80;0.43;;;16.90;80.60;;;;;;5984581;22;45057;-58
2023/12/11 14:28:38;;;;;;;2.05;0.50;;;16.90;80.60;;;;;;5970933;22;45209;-59
2023/12/11 14:31:28;;;;;;;1.85;0.40;;;16.90;80.70;;;;;;5964886;22;47423;-59
2023/12/11 14:34:10;;;;;;;1.52;0.60;;;16.90;80.70;;;;;;5989040;22;45145;-58
2023/12/11 14:36:59;;;;;;;2.13;0.60;;;16.90;80.70;;;;;;5980875;22;45124;-58
2023/12/11 14:43:15;;;;;;;2.47;0.77;;;16.90;80.80;;;;;;5932413;22;45835;-59
2023/12/11 14:45:53;;;;;;;4.22;0.82;;;16.90;80.80;;;;;;5961761;22;44974;-58
2023/12/11 14:48:21;;;;;;;2.08;0.60;;;16.90;80.70;;;;;;6004799;22;45285;-59
2023/12/11 14:51:12;;;;;;;0.80;0.47;;;16.80;80.70;;;;;;5983706;22;45794;-58
2023/12/11 14:53:54;;;;;;;2.10;0.73;;;16.80;80.90;;;;;;5967446;22;45869;-58
2023/12/11 14:56:21;;;;;;;1.88;0.63;;;16.80;81.20;;;;;;5985117;22;45768;-59
2023/12/11 14:59:00;;;;;;;2.22;0.70;;;16.80;81.10;;;;;;5998944;22;45287;-59
2023/12/11 15:01:29;;;;;;;1.75;0.60;;;16.80;81.10;;;;;;5972950;22;44985;-59
2023/12/11 15:07:33;;;;;;;3.50;0.90;;;16.80;81.00;;;;;;5932628;22;45268;-59
2023/12/11 15:10:00;;;;;;;2.08;0.65;;;16.70;81.20;;;;;;5997886;22;45016;-59
2023/12/11 15:12:55;;;;;;;2.08;0.85;;;16.80;81.10;;;;;;5987841;22;45115;-58
2023/12/11 15:15:23;;;;;;;1.25;0.70;;;16.80;81.30;;;;;;6026996;22;47275;-59
2023/12/11 15:18:14;;;;;;;1.67;0.60;;;16.80;81.00;;;;;;5999127;22;44978;-59
2023/12/11 15:20:56;;;;;;;4.63;0.70;;;16.80;80.90;;;;;;5974772;22;45469;-59
2023/12/11 15:23:53;;;;;;;3.05;0.82;;;16.70;80.10;;;;;;5965101;22;45283;-59
2023/12/11 15:26:36;;;;;;;1.33;0.60;;;16.70;80.20;;;;;;6024052;22;45549;-59
2023/12/11 15:29:17;;;;;;;1.40;0.70;;;16.80;80.60;;;;;;5966568;22;45284;-59
2023/12/11 15:31:43;;;;;;;1.02;0.47;;;16.70;80.40;;;;;;5986178;22;45258;-59